Time;durP1;ratioP1;P1;durP2;ratioP2;P2;SDS_P1;SDS_P2;PMS_P1;PMS_P2;Temp;Humidity;BMP_temperature;BMP_pressure;BME280_temperature;BME280_humidity;BME280_pressure;Samples;Min_cycle;Max_cycle;Signal;HPM_P1;HPM_P2
2023/10/14 06:46:04;;;;;;;2.60;0.47;;;10.90;99.90;;;;;;4033676;23;20238;-73
2023/10/14 06:48:31;;;;;;;2.50;0.53;;;11.20;99.90;;;;;;4919274;29;20216;-73
2023/10/14 06:50:59;;;;;;;1.83;0.60;;;11.50;99.90;;;;;;4919582;29;20300;-73
2023/10/14 06:53:28;;;;;;;9.17;1.30;;;11.80;99.90;;;;;;4919432;29;20320;-72
2023/10/14 06:55:55;;;;;;;6.70;0.93;;;12.10;99.90;;;;;;4919299;29;20300;-74
2023/10/14 06:58:22;;;;;;;6.23;0.90;;;12.40;99.90;;;;;;4919401;29;20216;-73
2023/10/14 07:00:49;;;;;;;3.10;0.50;;;12.80;99.90;;;;;;4919616;29;20209;-73
2023/10/14 07:03:18;;;;;;;1.37;0.50;;;13.20;99.90;;;;;;4919378;29;20233;-72
2023/10/14 07:05:48;;;;;;;5.03;0.57;;;13.50;99.90;;;;;;4919324;29;20692;-74
2023/10/14 07:08:15;;;;;;;3.17;0.70;;;13.60;99.90;;;;;;4919222;29;20224;-73
2023/10/14 07:10:43;;;;;;;5.93;0.90;;;14.00;99.90;;;;;;4918664;29;20305;-73
2023/10/14 07:13:10;;;;;;;3.10;0.50;;;14.30;99.90;;;;;;4918970;29;20756;-72
2023/10/14 07:15:38;;;;;;;2.37;0.50;;;14.50;99.90;;;;;;4919161;29;20253;-72
2023/10/14 07:18:08;;;;;;;1.77;0.50;;;14.50;99.90;;;;;;4909984;29;20292;-71
2023/10/14 07:20:39;;;;;;;2.93;0.53;;;14.80;99.90;;;;;;4917269;29;20217;-72
2023/10/14 07:23:07;;;;;;;4.77;0.70;;;14.90;99.90;;;;;;4916415;29;20230;-72
2023/10/14 07:25:35;;;;;;;4.47;1.00;;;15.20;99.90;;;;;;4916530;29;20210;-74
2023/10/14 07:28:06;;;;;;;2.20;0.60;;;15.40;99.90;;;;;;4916786;29;20309;-73
2023/10/14 07:30:34;;;;;;;3.80;1.23;;;15.60;99.90;;;;;;4916486;29;20206;-74
2023/10/14 07:33:04;;;;;;;3.93;0.70;;;15.90;99.90;;;;;;4916482;29;20230;-80
2023/10/14 07:35:32;;;;;;;3.33;0.50;;;15.90;99.90;;;;;;4916773;29;20206;-76
2023/10/14 07:38:00;;;;;;;2.47;0.80;;;16.10;99.90;;;;;;4917013;29;20217;-76
2023/10/14 07:40:30;;;;;;;5.00;0.73;;;15.90;99.90;;;;;;4914609;29;20209;-76
2023/10/14 07:43:05;;;;;;;2.30;0.70;;;16.30;99.90;;;;;;4916654;29;20289;-75
2023/10/14 07:45:34;;;;;;;2.60;0.70;;;16.60;99.90;;;;;;4916545;29;20213;-76
2023/10/14 07:48:08;;;;;;;3.43;0.70;;;16.30;99.90;;;;;;4915626;29;20657;-78
2023/10/14 07:50:36;;;;;;;5.87;1.53;;;15.80;99.90;;;;;;4917264;29;20245;-74
2023/10/14 07:53:12;;;;;;;3.00;0.87;;;15.70;99.90;;;;;;4917007;29;20284;-77
2023/10/14 07:55:40;;;;;;;5.77;0.60;;;16.00;99.90;;;;;;4916674;29;20669;-81
2023/10/14 07:58:08;;;;;;;5.80;1.33;;;16.20;99.90;;;;;;4915804;29;20214;-75
2023/10/14 08:00:39;;;;;;;2.93;1.13;;;16.40;99.90;;;;;;4915943;29;20220;-83
2023/10/14 08:03:07;;;;;;;3.80;0.80;;;16.50;99.90;;;;;;4916246;29;20273;-76
2023/10/14 08:05:37;;;;;;;5.55;0.68;;;16.60;99.90;;;;;;4915732;29;20232;-76
2023/10/14 08:08:09;;;;;;;2.07;0.57;;;16.30;99.90;;;;;;4916099;29;20217;-77
2023/10/14 08:10:36;;;;;;;4.57;0.80;;;15.90;99.90;;;;;;4915996;29;20214;-82
2023/10/14 08:13:04;;;;;;;2.97;0.73;;;15.60;99.90;;;;;;4915238;29;20285;-77
2023/10/14 08:15:32;;;;;;;4.00;0.60;;;15.60;99.90;;;;;;4915454;29;20825;-75
2023/10/14 08:18:00;;;;;;;3.20;0.57;;;15.50;99.90;;;;;;4915684;29;20219;-79
2023/10/14 08:20:28;;;;;;;2.13;0.60;;;15.50;99.90;;;;;;4915176;29;20671;-81
2023/10/14 08:22:55;;;;;;;3.83;0.77;;;15.80;99.90;;;;;;4912409;29;20226;-80
2023/10/14 08:25:25;;;;;;;2.97;0.83;;;16.10;99.90;;;;;;4916966;29;20261;-85
2023/10/14 08:27:53;;;;;;;5.10;1.10;;;16.20;99.90;;;;;;4906168;29;20713;-82
2023/10/14 08:30:24;;;;;;;3.23;0.60;;;16.50;99.90;;;;;;4899167;29;20214;-84
2023/10/14 08:32:52;;;;;;;5.63;0.90;;;16.80;99.90;;;;;;4908681;29;20269;-80
2023/10/14 08:35:27;;;;;;;3.60;0.67;;;16.90;99.90;;;;;;4917680;29;20784;-83
2023/10/14 08:37:55;;;;;;;5.85;0.77;;;16.80;99.90;;;;;;4917869;29;20300;-83
2023/10/14 08:40:26;;;;;;;7.78;0.80;;;17.00;99.90;;;;;;4917569;29;20233;-81
2023/10/14 08:42:56;;;;;;;3.70;0.57;;;17.00;99.90;;;;;;4916981;29;20237;-78
2023/10/14 08:45:26;;;;;;;3.63;1.00;;;17.00;99.90;;;;;;4916215;29;20301;-81
2023/10/14 08:47:54;;;;;;;4.73;0.50;;;16.50;99.90;;;;;;4916658;29;20760;-80
2023/10/14 08:50:24;;;;;;;3.07;0.70;;;16.30;99.90;;;;;;4917403;29;20209;-77
2023/10/14 08:52:53;;;;;;;4.27;1.10;;;16.20;99.90;;;;;;4916836;29;20612;-75
2023/10/14 08:55:21;;;;;;;3.27;0.80;;;16.20;99.90;;;;;;4917331;29;20241;-79
2023/10/14 08:57:51;;;;;;;3.10;0.60;;;16.00;99.90;;;;;;4916831;29;20209;-85
2023/10/14 09:00:23;;;;;;;3.77;1.00;;;16.00;99.90;;;;;;4917500;29;20214;-85
2023/10/14 09:02:53;;;;;;;3.03;1.00;;;15.80;99.90;;;;;;4917149;29;20225;-79
2023/10/14 09:05:20;;;;;;;3.30;0.73;;;15.70;99.90;;;;;;4916082;29;20304;-79
2023/10/14 09:07:49;;;;;;;2.63;0.50;;;15.60;99.90;;;;;;4916768;29;20320;-77
2023/10/14 09:10:18;;;;;;;4.37;0.80;;;15.60;99.90;;;;;;4916981;29;20210;-75
2023/10/14 09:13:03;;;;;;;6.20;1.03;;;15.40;99.90;;;;;;4916261;29;20284;-78
2023/10/14 09:15:32;;;;;;;1.60;0.60;;;15.40;99.90;;;;;;4917354;29;20292;-77
2023/10/14 09:18:00;;;;;;;7.97;0.80;;;15.40;99.90;;;;;;4916449;29;20225;-77
2023/10/14 09:20:32;;;;;;;5.17;0.90;;;15.40;99.90;;;;;;4917159;29;20629;-77
2023/10/14 09:23:19;;;;;;;3.17;0.83;;;15.40;99.90;;;;;;4912835;29;20269;-74
2023/10/14 09:25:49;;;;;;;2.20;0.83;;;15.40;99.90;;;;;;4914146;29;20228;-76
2023/10/14 09:28:20;;;;;;;4.87;0.87;;;15.30;99.90;;;;;;4910517;29;20245;-74
2023/10/14 09:30:50;;;;;;;4.00;0.77;;;15.30;99.90;;;;;;4914984;29;20229;-74
2023/10/14 09:33:19;;;;;;;4.67;0.70;;;15.30;99.90;;;;;;4911431;29;20304;-76
2023/10/14 09:35:49;;;;;;;5.87;0.80;;;15.20;99.90;;;;;;4912132;29;20618;-74
2023/10/14 09:38:22;;;;;;;6.57;0.70;;;15.20;99.90;;;;;;4914358;29;20249;-74
2023/10/14 09:40:54;;;;;;;4.00;0.80;;;15.20;99.90;;;;;;4915147;29;20202;-75
2023/10/14 09:43:25;;;;;;;2.07;0.60;;;15.10;99.90;;;;;;4911590;29;20649;-76
2023/10/14 09:45:56;;;;;;;2.23;0.50;;;15.10;99.90;;;;;;4914268;29;20542;-76
2023/10/14 09:48:27;;;;;;;6.43;0.70;;;15.00;99.90;;;;;;4912093;29;20248;-75
2023/10/14 09:50:54;;;;;;;3.87;0.63;;;15.00;99.90;;;;;;4913904;29;20237;-75
2023/10/14 09:53:26;;;;;;;2.53;0.67;;;14.90;99.90;;;;;;4911752;29;20273;-77
2023/10/14 09:55:55;;;;;;;1.47;0.50;;;14.80;99.90;;;;;;4914108;29;20205;-76
2023/10/14 09:58:26;;;;;;;6.80;0.80;;;15.00;99.90;;;;;;4911339;29;20217;-76
2023/10/14 10:00:53;;;;;;;8.10;0.90;;;15.20;99.90;;;;;;4914540;29;20206;-77
2023/10/14 10:03:21;;;;;;;3.87;0.70;;;15.40;99.90;;;;;;4911617;29;20637;-76
2023/10/14 10:05:59;;;;;;;7.37;0.83;;;15.40;99.90;;;;;;4914191;29;20657;-74
2023/10/14 10:08:46;;;;;;;3.70;0.57;;;15.50;99.90;;;;;;4914958;29;20428;-79
2023/10/14 10:11:23;;;;;;;3.73;0.50;;;15.60;99.90;;;;;;4911119;29;20257;-77
2023/10/14 10:13:51;;;;;;;6.10;0.63;;;15.50;99.90;;;;;;4915224;29;20225;-78
2023/10/14 10:16:21;;;;;;;6.43;0.80;;;15.50;99.90;;;;;;4916094;29;20634;-78
2023/10/14 10:18:56;;;;;;;5.77;1.20;;;15.50;99.90;;;;;;4916176;29;20300;-77
2023/10/14 10:21:26;;;;;;;4.13;0.87;;;15.50;99.90;;;;;;4915594;29;20209;-77
2023/10/14 10:23:57;;;;;;;3.13;1.10;;;15.80;99.90;;;;;;4915325;29;20229;-78
2023/10/14 10:26:24;;;;;;;4.10;0.70;;;15.70;99.90;;;;;;4915765;29;20217;-78
2023/10/14 10:28:53;;;;;;;5.60;0.97;;;15.70;99.90;;;;;;4915838;29;20313;-78
2023/10/14 10:31:23;;;;;;;6.40;0.80;;;15.60;99.90;;;;;;4915757;29;20205;-78
2023/10/14 10:33:56;;;;;;;4.83;0.50;;;15.60;99.90;;;;;;4915946;29;20614;-77
2023/10/14 10:36:25;;;;;;;6.20;0.67;;;15.60;99.90;;;;;;4915946;29;20252;-78
2023/10/14 10:38:56;;;;;;;4.10;0.93;;;15.50;99.90;;;;;;4915700;29;20245;-77
2023/10/14 10:41:26;;;;;;;2.27;0.40;;;15.60;99.90;;;;;;4915663;29;20213;-76
2023/10/14 10:44:01;;;;;;;2.93;0.70;;;15.60;99.90;;;;;;4915311;29;20264;-77
2023/10/14 10:46:38;;;;;;;3.37;0.40;;;15.30;99.90;;;;;;4918057;29;20307;-79
2023/10/14 10:49:07;;;;;;;2.50;0.70;;;15.30;99.90;;;;;;4919653;29;20297;-77
2023/10/14 10:51:34;;;;;;;6.60;1.10;;;15.30;99.90;;;;;;4919401;29;20213;-78
2023/10/14 10:54:02;;;;;;;5.87;0.90;;;15.20;99.90;;;;;;4919408;29;20321;-79
2023/10/14 10:56:30;;;;;;;8.23;1.20;;;15.40;99.90;;;;;;4919303;29;20286;-77
2023/10/14 10:59:04;;;;;;;3.93;0.70;;;15.40;99.90;;;;;;4919258;29;20250;-77
2023/10/14 11:01:32;;;;;;;2.47;0.77;;;15.40;99.90;;;;;;4919206;29;20213;-77
2023/10/14 11:04:00;;;;;;;7.17;0.50;;;15.50;99.90;;;;;;4919242;29;20239;-77
2023/10/14 11:06:29;;;;;;;7.50;0.93;;;15.70;99.90;;;;;;4919507;29;20237;-79
2023/10/14 11:08:58;;;;;;;6.97;0.60;;;15.80;99.90;;;;;;4919328;29;20228;-79
2023/10/14 11:11:30;;;;;;;5.03;0.73;;;16.10;99.90;;;;;;4919142;29;20691;-78
2023/10/14 11:13:57;;;;;;;3.90;0.60;;;16.20;99.90;;;;;;4919192;29;20240;-79
2023/10/14 11:16:27;;;;;;;6.10;0.60;;;16.20;99.90;;;;;;4919148;29;20217;-78
2023/10/14 11:18:54;;;;;;;4.33;1.17;;;16.20;99.90;;;;;;4918975;29;20210;-77
2023/10/14 11:21:23;;;;;;;5.90;0.93;;;15.90;99.90;;;;;;4918777;29;20686;-77
2023/10/14 11:23:53;;;;;;;3.67;0.53;;;15.50;99.90;;;;;;4918835;29;20230;-79
2023/10/14 11:26:23;;;;;;;6.90;0.90;;;15.10;99.90;;;;;;4918774;29;20209;-78
2023/10/14 11:28:50;;;;;;;5.50;1.00;;;14.90;99.90;;;;;;4918693;29;20570;-78
2023/10/14 11:31:20;;;;;;;2.37;0.70;;;14.90;99.90;;;;;;4918692;29;20315;-79
2023/10/14 11:33:48;;;;;;;3.13;0.67;;;14.90;99.90;;;;;;4918632;29;20233;-78
2023/10/14 11:36:17;;;;;;;4.70;0.80;;;15.00;99.90;;;;;;4918243;29;20233;-79
2023/10/14 11:38:46;;;;;;;5.83;0.80;;;15.10;99.90;;;;;;4918206;29;20585;-79
2023/10/14 11:41:15;;;;;;;5.43;1.00;;;15.20;99.90;;;;;;4918709;29;20213;-79
2023/10/14 11:43:44;;;;;;;2.83;0.50;;;15.30;99.90;;;;;;4918689;29;20573;-79
2023/10/14 11:46:11;;;;;;;4.40;0.80;;;15.30;99.90;;;;;;4918348;29;20273;-78
2023/10/14 11:48:38;;;;;;;4.83;1.10;;;15.30;99.90;;;;;;4918415;29;20244;-79
2023/10/14 11:51:11;;;;;;;3.33;0.90;;;15.10;99.90;;;;;;4918112;29;20209;-78
2023/10/14 11:53:43;;;;;;;7.50;1.20;;;15.10;99.90;;;;;;4918029;29;20256;-78
2023/10/14 11:56:13;;;;;;;4.80;0.70;;;15.10;99.90;;;;;;4918288;29;20666;-78
2023/10/14 11:58:41;;;;;;;3.20;0.60;;;15.20;99.90;;;;;;4918473;29;20261;-78
2023/10/14 12:01:09;;;;;;;4.33;0.67;;;15.40;99.90;;;;;;4918249;29;20210;-78
2023/10/14 12:03:36;;;;;;;5.63;0.70;;;15.50;99.90;;;;;;4918109;29;20272;-78
2023/10/14 12:06:03;;;;;;;5.20;0.70;;;15.60;99.90;;;;;;4917790;29;20244;-78
2023/10/14 12:08:36;;;;;;;4.93;0.63;;;15.80;99.90;;;;;;4917806;29;20716;-77
2023/10/14 12:11:03;;;;;;;1.93;0.50;;;15.70;99.90;;;;;;4918249;29;20241;-79
2023/10/14 12:13:31;;;;;;;3.03;0.60;;;15.80;99.90;;;;;;4918012;29;20225;-77
2023/10/14 12:15:58;;;;;;;3.23;0.47;;;15.70;99.90;;;;;;4917889;29;20570;-77
2023/10/14 12:18:25;;;;;;;7.17;0.83;;;15.80;99.90;;;;;;4917962;29;20240;-78
2023/10/14 12:20:52;;;;;;;4.77;0.70;;;15.90;99.90;;;;;;4918047;29;20292;-77
2023/10/14 12:23:20;;;;;;;3.17;0.70;;;15.90;99.90;;;;;;4917955;29;20261;-77
2023/10/14 12:25:50;;;;;;;6.40;0.70;;;15.80;99.90;;;;;;4917835;29;20252;-78
2023/10/14 12:28:25;;;;;;;5.10;0.50;;;15.90;99.90;;;;;;4917794;29;20600;-78
2023/10/14 12:30:52;;;;;;;3.53;1.50;;;15.80;99.90;;;;;;4917434;29;20217;-77
2023/10/14 12:33:23;;;;;;;4.37;0.70;;;15.90;99.90;;;;;;4917721;29;20229;-78
2023/10/14 12:35:52;;;;;;;3.07;0.70;;;15.90;99.90;;;;;;4917844;29;20703;-78
2023/10/14 12:38:22;;;;;;;4.93;0.70;;;15.90;99.90;;;;;;4917985;29;20209;-77
2023/10/14 12:40:51;;;;;;;5.43;0.87;;;15.90;99.90;;;;;;4918032;29;20277;-77
2023/10/14 12:43:18;;;;;;;6.27;1.00;;;15.70;99.90;;;;;;4918309;29;20233;-78
2023/10/14 12:45:49;;;;;;;5.17;1.10;;;15.80;99.90;;;;;;4917547;29;20218;-77
2023/10/14 12:48:16;;;;;;;7.67;0.67;;;15.80;99.90;;;;;;4917626;29;20245;-78
2023/10/14 12:50:46;;;;;;;5.60;0.73;;;16.00;99.90;;;;;;4917658;29;20237;-77
2023/10/14 12:53:13;;;;;;;2.30;0.97;;;16.20;99.90;;;;;;4917504;29;20233;-77
2023/10/14 12:55:44;;;;;;;3.60;0.60;;;16.40;99.90;;;;;;4917682;29;20715;-78
2023/10/14 12:58:15;;;;;;;2.20;0.60;;;16.20;99.90;;;;;;4917612;29;20669;-77
2023/10/14 13:00:42;;;;;;;5.37;0.60;;;16.00;99.90;;;;;;4917878;29;20217;-77
2023/10/14 13:03:10;;;;;;;3.77;0.67;;;15.90;99.90;;;;;;4917256;29;20233;-77
2023/10/14 13:05:38;;;;;;;5.43;0.43;;;15.80;99.90;;;;;;4917515;29;20647;-77
2023/10/14 13:08:06;;;;;;;4.43;0.43;;;15.70;99.90;;;;;;4916782;29;20388;-77
2023/10/14 13:10:36;;;;;;;2.70;0.40;;;15.60;99.90;;;;;;4917411;29;20257;-77
2023/10/14 13:13:03;;;;;;;4.00;0.70;;;15.70;99.90;;;;;;4917892;29;20229;-77
2023/10/14 13:15:35;;;;;;;3.63;1.00;;;15.80;99.90;;;;;;4917935;29;20237;-77
2023/10/14 13:18:05;;;;;;;5.90;0.50;;;15.80;99.90;;;;;;4917848;29;20296;-79
2023/10/14 13:20:33;;;;;;;1.60;0.40;;;15.60;99.90;;;;;;4917409;29;20296;-77
2023/10/14 13:23:04;;;;;;;2.37;0.70;;;15.40;99.90;;;;;;4916838;29;20325;-78
2023/10/14 13:25:36;;;;;;;2.10;0.40;;;15.40;99.90;;;;;;4917956;29;20237;-76
2023/10/14 13:28:08;;;;;;;4.13;0.50;;;15.20;99.90;;;;;;4917487;29;20244;-79
2023/10/14 13:30:37;;;;;;;3.97;0.30;;;15.40;99.90;;;;;;4917254;29;20213;-77
2023/10/14 13:33:05;;;;;;;2.10;0.40;;;15.60;99.90;;;;;;4917200;29;20277;-77
2023/10/14 13:35:33;;;;;;;3.37;0.40;;;15.70;99.90;;;;;;4917186;29;20214;-77
2023/10/14 13:38:00;;;;;;;3.43;0.60;;;15.70;99.90;;;;;;4917485;29;20224;-77
2023/10/14 13:40:27;;;;;;;2.50;0.53;;;15.70;99.90;;;;;;4917283;29;20210;-80
2023/10/14 13:42:55;;;;;;;5.23;0.73;;;15.80;99.90;;;;;;4917594;29;20641;-79
2023/10/14 13:45:22;;;;;;;6.30;0.73;;;15.80;99.90;;;;;;4917031;29;20251;-77
2023/10/14 13:47:51;;;;;;;6.33;0.70;;;15.70;99.90;;;;;;4916935;29;20242;-76
2023/10/14 13:50:21;;;;;;;4.77;0.87;;;15.60;99.90;;;;;;4917006;29;20233;-76
2023/10/14 13:52:55;;;;;;;1.47;0.40;;;15.50;99.90;;;;;;4916742;29;20229;-80
2023/10/14 13:55:22;;;;;;;2.13;0.60;;;15.40;99.90;;;;;;4916651;29;20296;-78
2023/10/14 13:57:50;;;;;;;1.17;0.33;;;15.20;99.90;;;;;;4916757;29;20205;-79
2023/10/14 14:00:35;;;;;;;2.97;0.97;;;15.20;99.90;;;;;;4917063;29;20248;-76
2023/10/14 14:03:05;;;;;;;4.63;0.83;;;15.10;99.90;;;;;;4916830;29;20285;-77
2023/10/14 14:05:33;;;;;;;3.27;0.60;;;15.10;99.90;;;;;;4917226;29;20209;-77
2023/10/14 14:07:59;;;;;;;3.83;0.50;;;15.10;99.90;;;;;;4916968;29;20324;-77
2023/10/14 14:10:26;;;;;;;0.77;0.30;;;15.00;99.90;;;;;;4917246;29;20284;-77
2023/10/14 14:12:54;;;;;;;5.20;0.70;;;14.70;99.90;;;;;;4916920;29;20578;-77
2023/10/14 14:15:21;;;;;;;2.97;0.40;;;14.60;99.90;;;;;;4917069;29;20646;-77
2023/10/14 14:17:49;;;;;;;2.00;0.47;;;14.60;99.90;;;;;;4917059;29;20237;-78
2023/10/14 14:20:18;;;;;;;1.50;0.30;;;14.40;99.90;;;;;;4917866;29;20213;-77
2023/10/14 14:22:45;;;;;;;2.23;0.60;;;14.50;99.90;;;;;;4921119;29;20241;-76
2023/10/14 14:25:13;;;;;;;2.23;0.40;;;14.60;99.90;;;;;;4920566;29;20245;-76
2023/10/14 14:27:40;;;;;;;1.00;0.40;;;14.60;99.90;;;;;;4920430;29;20652;-77
2023/10/14 14:30:08;;;;;;;1.03;0.50;;;14.50;99.90;;;;;;4920713;29;20241;-78
2023/10/14 14:32:36;;;;;;;0.90;0.40;;;14.60;99.90;;;;;;4920464;29;20269;-77
2023/10/14 14:35:08;;;;;;;1.97;0.30;;;14.80;99.90;;;;;;4920335;29;20257;-76
2023/10/14 14:37:37;;;;;;;1.17;0.30;;;14.80;99.90;;;;;;4920828;29;20305;-77
2023/10/14 14:40:23;;;;;;;1.97;0.30;;;14.70;99.90;;;;;;4920338;29;20768;-79
2023/10/14 14:42:51;;;;;;;4.70;0.50;;;14.70;99.90;;;;;;4919894;29;20629;-76
2023/10/14 14:45:22;;;;;;;2.40;0.50;;;14.70;99.90;;;;;;4919910;29;20224;-80
2023/10/14 14:47:49;;;;;;;0.73;0.30;;;14.60;99.90;;;;;;4919934;29;20212;-77
2023/10/14 14:50:16;;;;;;;3.30;0.63;;;14.50;99.90;;;;;;4920105;29;20237;-76
2023/10/14 14:52:45;;;;;;;1.60;0.40;;;14.50;99.90;;;;;;4919793;29;20725;-78
2023/10/14 14:55:14;;;;;;;1.90;0.53;;;14.30;99.90;;;;;;4920129;29;20289;-79
2023/10/14 14:57:44;;;;;;;0.70;0.30;;;14.30;99.90;;;;;;4920526;29;20209;-79
2023/10/14 15:00:14;;;;;;;2.47;1.00;;;14.30;99.90;;;;;;4920252;29;20218;-81
2023/10/14 15:02:40;;;;;;;2.37;0.60;;;14.40;99.90;;;;;;4919979;29;20320;-76
2023/10/14 15:05:07;;;;;;;1.80;1.10;;;14.30;99.90;;;;;;4919504;29;20217;-77
2023/10/14 15:07:34;;;;;;;0.40;0.20;;;14.30;99.90;;;;;;4920130;29;20249;-78
2023/10/14 15:10:07;;;;;;;1.10;0.63;;;14.30;99.90;;;;;;4919764;29;20328;-80
2023/10/14 15:12:34;;;;;;;5.57;0.73;;;14.30;99.90;;;;;;4919705;29;20316;-78
2023/10/14 15:15:02;;;;;;;4.17;0.80;;;14.20;99.90;;;;;;4919859;29;20242;-77
2023/10/14 15:17:30;;;;;;;5.07;0.43;;;14.20;99.90;;;;;;4919659;29;20210;-77
2023/10/14 15:19:57;;;;;;;3.10;0.63;;;14.20;99.90;;;;;;4919882;29;20214;-77
2023/10/14 15:22:24;;;;;;;6.23;1.33;;;14.20;99.90;;;;;;4919472;29;20233;-79
2023/10/14 15:24:52;;;;;;;3.23;0.53;;;14.30;99.90;;;;;;4919436;29;20232;-77
2023/10/14 15:27:21;;;;;;;4.17;0.60;;;14.30;99.90;;;;;;4920908;29;20546;-81
